createdAt,value
2019-05-18T00:00:25.852Z,9.38
2019-05-18T00:02:53.197Z,10.60
2019-05-18T00:05:20.531Z,8.80
2019-05-18T00:07:47.820Z,10.03
2019-05-18T00:10:15.247Z,9.43
2019-05-18T00:12:42.540Z,9.68
2019-05-18T00:15:09.601Z,9.15
2019-05-18T00:17:37.517Z,9.23
2019-05-18T00:20:04.816Z,8.60
2019-05-18T00:22:32.325Z,8.43
2019-05-18T00:24:59.389Z,8.80
2019-05-18T00:27:26.493Z,9.73
2019-05-18T00:32:27.120Z,8.90
2019-05-18T00:34:54.408Z,9.35
2019-05-18T00:37:21.606Z,7.97
2019-05-18T00:39:48.908Z,9.08
2019-05-18T00:42:16.194Z,9.28
2019-05-18T00:44:43.487Z,8.98
2019-05-18T00:47:10.525Z,9.30
2019-05-18T00:49:37.561Z,8.58
2019-05-18T00:52:04.617Z,9.13
2019-05-18T00:54:32.784Z,8.93
2019-05-18T00:56:59.850Z,9.10
2019-05-18T00:59:26.872Z,8.55
2019-05-18T01:01:54.189Z,8.65
2019-05-18T01:04:21.229Z,8.73
2019-05-18T01:06:48.288Z,9.43
2019-05-18T01:09:15.332Z,8.45
2019-05-18T01:11:42.746Z,8.83
2019-05-18T01:14:09.999Z,8.10
2019-05-18T01:16:37.318Z,8.25
2019-05-18T01:19:04.668Z,7.92
2019-05-18T01:21:32.163Z,7.72
2019-05-18T01:23:59.478Z,8.03
2019-05-18T01:26:26.533Z,7.67
2019-05-18T01:28:53.881Z,7.05
2019-05-18T01:31:21.178Z,7.30
2019-05-18T01:33:48.213Z,7.90
2019-05-18T01:36:15.280Z,8.55
2019-05-18T01:38:42.586Z,7.65
2019-05-18T01:41:09.902Z,7.20
2019-05-18T01:43:36.937Z,7.25
2019-05-18T01:46:03.988Z,8.25
2019-05-18T01:48:31.288Z,6.85
2019-05-18T01:50:58.341Z,7.45
2019-05-18T01:53:25.719Z,7.28
2019-05-18T01:55:52.764Z,7.37
2019-05-18T01:58:19.798Z,7.95
2019-05-18T02:00:47.145Z,8.03
2019-05-18T02:03:14.539Z,7.35
2019-05-18T02:05:41.857Z,7.42
2019-05-18T02:08:09.229Z,8.05
2019-05-18T02:10:36.394Z,8.80
2019-05-18T02:13:03.746Z,8.50
2019-05-18T02:15:30.782Z,7.97
2019-05-18T02:17:57.826Z,8.20
2019-05-18T02:20:25.119Z,8.85
2019-05-18T02:22:52.419Z,8.45
2019-05-18T02:25:19.458Z,8.23
2019-05-18T02:27:46.745Z,8.13
2019-05-18T02:30:17.314Z,8.40
2019-05-18T02:32:42.522Z,8.38
2019-05-18T02:35:09.559Z,8.65
2019-05-18T02:37:37.679Z,8.18
2019-05-18T02:40:05.080Z,7.55
2019-05-18T02:42:32.389Z,6.78
2019-05-18T02:44:59.422Z,6.70
2019-05-18T02:47:26.789Z,7.60
2019-05-18T02:49:53.822Z,7.05
2019-05-18T02:52:21.115Z,8.20
2019-05-18T02:54:48.161Z,8.03
2019-05-18T02:57:15.203Z,7.83
2019-05-18T02:59:42.267Z,6.50
2019-05-18T03:02:09.595Z,7.37
2019-05-18T03:04:36.878Z,7.42
2019-05-18T03:07:04.195Z,6.87
2019-05-18T03:09:31.236Z,7.58
2019-05-18T03:11:58.530Z,7.75
2019-05-18T03:14:25.561Z,7.58
2019-05-18T03:16:52.635Z,6.95
2019-05-18T03:19:19.822Z,7.37
2019-05-18T03:21:46.898Z,8.53
2019-05-18T03:24:14.352Z,7.75
2019-05-18T03:26:41.391Z,9.10
2019-05-18T03:29:08.442Z,8.25
2019-05-18T03:31:35.518Z,8.20
2019-05-18T03:34:02.594Z,7.67
2019-05-18T03:36:30.017Z,7.97
2019-05-18T03:38:57.065Z,7.12
2019-05-18T03:41:24.097Z,8.30
2019-05-18T03:43:51.450Z,8.90
2019-05-18T03:46:18.489Z,8.13
2019-05-18T03:48:45.533Z,8.30
2019-05-18T03:51:12.904Z,6.33
2019-05-18T03:53:39.951Z,6.80
2019-05-18T03:56:07.509Z,6.72
2019-05-18T03:58:34.562Z,7.87
2019-05-18T04:01:02.353Z,8.33
2019-05-18T04:03:29.389Z,7.97
2019-05-18T04:05:56.512Z,7.15
2019-05-18T04:08:23.906Z,7.25
2019-05-18T04:10:50.965Z,7.25
2019-05-18T04:13:18.277Z,7.50
2019-05-18T04:15:45.313Z,7.90
2019-05-18T04:18:12.683Z,7.20
2019-05-18T04:20:40.957Z,8.03
2019-05-18T04:23:08.012Z,7.22
2019-05-18T04:25:35.364Z,7.72
2019-05-18T04:28:02.413Z,6.58
2019-05-18T04:30:29.693Z,5.83
2019-05-18T04:32:57.038Z,6.65
2019-05-18T04:35:24.135Z,7.22
2019-05-18T04:37:51.530Z,6.58
2019-05-18T04:40:18.622Z,7.08
2019-05-18T04:42:45.671Z,6.97
2019-05-18T04:45:12.711Z,7.42
2019-05-18T04:47:40.020Z,7.10
2019-05-18T04:50:07.408Z,7.22
2019-05-18T04:52:34.757Z,6.65
2019-05-18T04:55:01.813Z,7.17
2019-05-18T04:57:28.844Z,7.83
2019-05-18T04:59:56.182Z,7.83
2019-05-18T05:02:23.218Z,7.15
2019-05-18T05:04:53.991Z,7.20
2019-05-18T05:07:19.247Z,7.03
2019-05-18T05:09:46.633Z,6.92
2019-05-18T05:12:13.677Z,7.22
2019-05-18T05:14:40.724Z,7.10
2019-05-18T05:17:08.081Z,6.55
2019-05-18T05:19:35.433Z,6.85
2019-05-18T05:22:02.474Z,6.00
2019-05-18T05:24:29.837Z,6.03
2019-05-18T05:26:57.211Z,6.28
2019-05-18T05:29:24.566Z,5.65
2019-05-18T05:31:51.924Z,5.80
2019-05-18T05:34:19.941Z,6.30
2019-05-18T05:36:46.975Z,5.90
2019-05-18T05:39:14.029Z,5.62
2019-05-18T05:41:41.060Z,6.17
2019-05-18T05:44:08.105Z,6.28
2019-05-18T05:46:37.341Z,6.40
2019-05-18T05:49:04.518Z,6.62
2019-05-18T05:51:31.869Z,6.85
2019-05-18T05:53:58.922Z,6.65
2019-05-18T05:56:25.964Z,6.28
2019-05-18T05:58:53.031Z,5.97
2019-05-18T06:01:20.049Z,6.70
2019-05-18T06:03:47.432Z,6.20
2019-05-18T06:06:14.474Z,6.05
2019-05-18T06:08:41.846Z,6.45
2019-05-18T06:11:08.870Z,6.10
2019-05-18T06:13:35.917Z,5.90
2019-05-18T06:16:03.476Z,6.17
2019-05-18T06:18:30.511Z,6.10
2019-05-18T06:20:57.560Z,5.90
2019-05-18T06:23:24.593Z,6.87
2019-05-18T06:25:51.991Z,6.15
2019-05-18T06:28:20.456Z,6.53
2019-05-18T06:30:47.731Z,6.28
2019-05-18T06:33:15.062Z,5.35
2019-05-18T06:35:42.427Z,5.95
2019-05-18T06:38:09.496Z,5.97
2019-05-18T06:40:36.840Z,6.30
2019-05-18T06:43:03.873Z,5.83
2019-05-18T06:45:30.924Z,5.90
2019-05-18T06:47:58.273Z,5.72
2019-05-18T06:50:25.322Z,5.50
2019-05-18T06:52:52.354Z,6.03
2019-05-18T06:55:19.741Z,5.90
2019-05-18T06:57:46.772Z,5.67
2019-05-18T07:00:14.147Z,6.10
2019-05-18T07:02:41.483Z,5.80
2019-05-18T07:05:08.780Z,6.03
2019-05-18T07:07:36.089Z,5.90
2019-05-18T07:10:03.140Z,5.65
2019-05-18T07:12:30.513Z,5.75
2019-05-18T07:15:00.362Z,5.45
2019-05-18T07:17:26.575Z,5.47
2019-05-18T07:19:53.891Z,5.97
2019-05-18T07:22:20.922Z,6.37
2019-05-18T07:24:48.290Z,5.70
2019-05-18T07:27:15.645Z,5.45
2019-05-18T07:29:43.024Z,5.62
2019-05-18T07:32:10.380Z,4.87
2019-05-18T07:34:37.732Z,5.75
2019-05-18T07:37:05.069Z,5.78
2019-05-18T07:39:32.104Z,6.15
2019-05-18T07:41:59.161Z,6.33
2019-05-18T07:44:26.551Z,5.50
2019-05-18T07:46:53.569Z,5.47
2019-05-18T07:49:20.604Z,5.87
2019-05-18T07:51:48.717Z,6.45
2019-05-18T07:57:10.248Z,7.12
2019-05-18T07:59:37.600Z,6.90
2019-05-18T08:02:04.941Z,6.53
2019-05-18T08:04:32.312Z,5.45
2019-05-18T08:06:59.361Z,6.42
2019-05-18T08:09:26.715Z,6.75
2019-05-18T08:11:54.083Z,6.85
2019-05-18T08:14:21.405Z,6.90
2019-05-18T08:16:48.455Z,7.12
2019-05-18T08:19:15.805Z,7.70
2019-05-18T08:21:52.655Z,7.40
2019-05-18T08:24:11.618Z,7.85
2019-05-18T08:26:38.659Z,7.37
2019-05-18T08:29:05.696Z,7.37
2019-05-18T08:31:32.746Z,7.62
2019-05-18T08:33:59.781Z,7.95
2019-05-18T08:36:26.831Z,7.87
2019-05-18T08:38:53.868Z,7.15
2019-05-18T08:41:20.924Z,7.47
2019-05-18T08:43:48.239Z,7.72
2019-05-18T08:46:15.591Z,7.00
2019-05-18T08:48:42.959Z,6.95
2019-05-18T08:51:10.304Z,7.03
2019-05-18T08:53:37.344Z,7.47
2019-05-18T08:56:04.394Z,7.03
2019-05-18T08:58:31.749Z,6.53
2019-05-18T09:00:59.109Z,7.00
2019-05-18T09:03:26.158Z,7.62
2019-05-18T09:05:53.188Z,5.97
2019-05-18T09:08:20.239Z,6.70
2019-05-18T09:10:48.030Z,6.83
2019-05-18T09:13:15.067Z,7.30
2019-05-18T09:15:42.106Z,7.05
2019-05-18T09:18:09.463Z,6.05
2019-05-18T09:20:37.540Z,6.53
2019-05-18T09:23:04.997Z,6.75
2019-05-18T09:25:32.346Z,6.22
2019-05-18T09:27:59.395Z,6.83
2019-05-18T09:30:45.009Z,5.85
2019-05-18T09:33:12.349Z,6.15
2019-05-18T09:35:39.704Z,6.20
2019-05-18T09:38:07.042Z,5.78
2019-05-18T09:40:34.087Z,6.30
2019-05-18T09:43:01.449Z,5.85
2019-05-18T09:45:28.481Z,5.70
2019-05-18T09:47:55.601Z,5.87
2019-05-18T09:50:24.025Z,5.53
2019-05-18T09:52:51.078Z,5.30
2019-05-18T09:55:18.120Z,5.60
2019-05-18T09:57:45.425Z,5.30
2019-05-18T10:00:12.746Z,5.72
2019-05-18T10:02:40.325Z,6.40
2019-05-18T10:05:07.362Z,5.67
2019-05-18T10:07:34.709Z,5.60
2019-05-18T10:10:01.761Z,6.00
2019-05-18T10:12:29.055Z,6.47
2019-05-18T10:14:56.095Z,6.92
2019-05-18T10:17:23.141Z,6.20
2019-05-18T10:19:51.244Z,5.83
2019-05-18T10:22:18.632Z,6.95
2019-05-18T10:24:45.972Z,7.55
2019-05-18T10:27:13.331Z,10.80
2019-05-18T10:29:40.696Z,7.35
2019-05-18T10:32:08.051Z,7.50
2019-05-18T10:34:35.106Z,10.38
2019-05-18T10:37:02.429Z,7.65
2019-05-18T10:39:29.476Z,7.05
2019-05-18T10:41:56.510Z,7.92
2019-05-18T10:44:23.568Z,7.67
2019-05-18T10:46:50.944Z,7.25
2019-05-18T10:49:19.245Z,7.37
2019-05-18T10:51:46.277Z,6.80
2019-05-18T10:54:13.622Z,8.20
2019-05-18T10:56:40.657Z,6.60
2019-05-18T10:59:07.706Z,7.85
2019-05-18T11:01:34.740Z,7.80
2019-05-18T11:04:01.797Z,7.15
2019-05-18T11:06:29.166Z,7.25
2019-05-18T11:08:56.468Z,8.13
2019-05-18T11:11:23.491Z,7.12
2019-05-18T11:13:50.821Z,7.15
2019-05-18T11:16:17.871Z,7.22
2019-05-18T11:18:45.240Z,7.17
2019-05-18T11:21:12.525Z,7.33
2019-05-18T11:23:44.219Z,8.40
2019-05-18T11:26:08.932Z,8.60
2019-05-18T11:28:36.296Z,9.38
2019-05-18T11:31:03.638Z,9.20
2019-05-18T11:33:30.994Z,8.40
2019-05-18T11:35:58.369Z,8.53
2019-05-18T11:38:25.417Z,8.40
2019-05-18T11:40:52.450Z,8.88
2019-05-18T11:43:19.497Z,8.20
2019-05-18T11:45:46.855Z,8.23
2019-05-18T11:48:15.744Z,8.25
2019-05-18T11:56:07.063Z,7.75
2019-05-18T11:58:39.464Z,7.60
2019-05-18T12:01:07.672Z,8.50
2019-05-18T12:06:26.879Z,8.38
2019-05-18T12:08:54.144Z,7.78
2019-05-18T12:11:22.463Z,7.60
2019-05-18T12:13:49.723Z,6.70
2019-05-18T12:19:17.425Z,6.20
2019-05-18T12:21:46.634Z,5.62
2019-05-18T12:24:17.288Z,6.03
2019-05-18T12:26:46.457Z,5.70
2019-05-18T12:29:18.538Z,5.50
2019-05-18T12:31:46.971Z,5.20
2019-05-18T12:34:18.847Z,5.35
2019-05-18T12:36:57.579Z,5.92
2019-05-18T12:39:24.749Z,6.30
2019-05-18T12:44:42.812Z,6.30
2019-05-18T12:47:29.284Z,6.58
2019-05-18T12:50:01.995Z,6.20
2019-05-18T12:52:29.893Z,6.25
2019-05-18T12:57:47.105Z,6.83
2019-05-18T13:00:14.712Z,6.67
2019-05-18T13:02:42.000Z,6.03
2019-05-18T13:10:31.177Z,6.08
2019-05-18T13:13:02.589Z,5.30
2019-05-18T13:18:10.039Z,5.47
2019-05-18T13:20:37.607Z,6.42
2019-05-18T13:23:05.796Z,15.98
2019-05-18T13:31:02.152Z,5.45
2019-05-18T13:33:36.373Z,3.62
2019-05-18T13:36:04.821Z,4.65
2019-05-18T13:38:47.161Z,2.60
2019-05-18T13:41:15.355Z,1.95
2019-05-18T13:43:43.612Z,1.75
2019-05-18T13:46:12.171Z,1.50
2019-05-18T13:48:39.341Z,1.70
2019-05-18T13:56:40.745Z,1.70
2019-05-18T13:59:07.777Z,2.37
2019-05-18T14:01:37.255Z,2.30
2019-05-18T14:04:05.022Z,2.85
2019-05-18T14:06:32.493Z,2.60
2019-05-18T14:08:59.542Z,2.60
2019-05-18T14:11:32.921Z,2.35
2019-05-18T14:14:00.599Z,2.20
2019-05-18T14:16:27.646Z,2.15
2019-05-18T14:18:56.975Z,2.90
2019-05-18T14:21:25.414Z,2.77
2019-05-18T14:23:52.594Z,3.27
2019-05-18T14:26:21.810Z,3.77
2019-05-18T14:28:48.894Z,3.17
2019-05-18T14:31:16.142Z,3.67
2019-05-18T14:33:44.616Z,2.83
2019-05-18T14:36:13.229Z,2.87
2019-05-18T14:38:40.908Z,2.60
2019-05-18T14:41:08.355Z,2.33
2019-05-18T14:43:36.117Z,2.52
2019-05-18T14:46:03.311Z,2.58
2019-05-18T14:48:31.471Z,2.45
2019-05-18T14:50:59.657Z,2.85
2019-05-18T14:53:27.812Z,2.72
2019-05-18T14:55:55.260Z,3.00
2019-05-18T14:58:23.009Z,2.87
2019-05-18T15:00:50.493Z,2.58
2019-05-18T15:03:17.650Z,2.20
2019-05-18T15:05:45.197Z,2.70
2019-05-18T15:08:12.372Z,2.50
2019-05-18T15:10:40.403Z,2.20
2019-05-18T15:13:07.858Z,2.20
2019-05-18T15:15:35.626Z,2.10
2019-05-18T15:18:02.841Z,2.67
2019-05-18T15:20:30.057Z,2.60
2019-05-18T15:22:58.244Z,2.35
2019-05-18T15:25:25.479Z,4.58
2019-05-18T15:27:52.658Z,2.50
2019-05-18T15:30:38.594Z,2.60
2019-05-18T15:36:00.078Z,2.90
2019-05-18T15:41:12.715Z,3.20
2019-05-18T15:43:39.944Z,2.98
2019-05-18T15:59:51.192Z,3.80
2019-05-18T16:02:20.438Z,3.52
2019-05-18T16:04:58.737Z,4.03
2019-05-18T16:07:25.997Z,4.12
2019-05-18T16:09:58.652Z,3.80
2019-05-18T16:17:48.979Z,2.65
2019-05-18T16:20:29.233Z,3.10
2019-05-18T16:23:01.965Z,3.10
2019-05-18T16:25:42.462Z,2.77
2019-05-18T16:28:09.659Z,3.40
2019-05-18T16:30:41.909Z,3.05
2019-05-18T16:36:00.502Z,3.02
2019-05-18T16:38:32.561Z,3.37
2019-05-18T16:41:01.747Z,3.20
2019-05-18T16:43:29.938Z,3.50
2019-05-18T16:49:00.160Z,3.05
2019-05-18T16:51:41.838Z,3.80
2019-05-18T16:54:12.989Z,4.20
2019-05-18T16:56:57.354Z,3.98
2019-05-18T17:04:42.846Z,4.22
2019-05-18T17:15:24.486Z,4.67
2019-05-18T17:17:52.076Z,5.15
2019-05-18T17:25:53.988Z,5.30
2019-05-18T17:28:26.129Z,5.47
2019-05-18T17:31:01.180Z,4.72
2019-05-18T17:33:28.518Z,4.70
2019-05-18T17:38:49.344Z,4.50
2019-05-18T17:41:24.707Z,4.80
2019-05-18T17:43:57.657Z,4.58
2019-05-18T17:52:04.260Z,5.15
2019-05-18T18:03:00.554Z,6.08
2019-05-18T18:05:45.519Z,6.62
2019-05-18T18:10:49.769Z,9.25
2019-05-18T18:13:17.974Z,9.60
2019-05-18T18:15:49.211Z,10.98
2019-05-18T18:18:17.656Z,10.80
2019-05-18T18:20:52.627Z,10.78
2019-05-18T18:23:25.008Z,10.70
2019-05-18T18:26:10.680Z,9.65
2019-05-18T18:28:42.657Z,9.35
2019-05-18T18:31:19.614Z,8.85
2019-05-18T18:33:46.963Z,7.90
2019-05-18T18:36:27.132Z,7.78
2019-05-18T18:41:49.317Z,7.30
2019-05-18T18:47:03.121Z,7.55
2019-05-18T18:52:09.554Z,7.67
2019-05-18T18:57:15.825Z,7.42
2019-05-18T18:59:49.016Z,7.53
2019-05-18T19:02:18.219Z,8.40
2019-05-18T19:12:59.232Z,8.10
2019-05-18T19:15:28.547Z,7.47
2019-05-18T19:18:08.887Z,7.37
2019-05-18T19:20:37.088Z,8.35
2019-05-18T19:23:20.366Z,8.45
2019-05-18T19:25:51.813Z,7.22
2019-05-18T19:28:29.408Z,6.87
2019-05-18T19:30:59.960Z,6.60
2019-05-18T19:38:50.323Z,6.08
2019-05-18T19:41:17.933Z,5.60
2019-05-18T19:43:50.141Z,5.30
2019-05-18T19:51:44.162Z,5.58
2019-05-18T19:57:03.282Z,4.95
2019-05-18T19:59:45.407Z,4.97
2019-05-18T20:05:06.327Z,5.45
2019-05-18T20:12:35.402Z,4.33
2019-05-18T20:17:50.289Z,4.58
2019-05-18T20:20:19.483Z,4.40
2019-05-18T20:25:50.448Z,10.15
2019-05-18T20:28:24.818Z,7.37
2019-05-18T20:30:52.019Z,8.48
2019-05-18T20:36:07.770Z,5.25
2019-05-18T20:38:50.998Z,5.47
2019-05-18T20:41:18.458Z,4.55
2019-05-18T20:43:58.144Z,4.37
2019-05-18T20:49:16.971Z,4.50
2019-05-18T20:59:50.942Z,4.55
2019-05-18T21:07:51.231Z,3.90
2019-05-18T21:10:32.720Z,4.50
2019-05-18T21:23:52.464Z,3.70
2019-05-18T21:26:20.691Z,3.83
2019-05-18T21:28:59.157Z,3.72
2019-05-18T21:31:20.905Z,3.77
2019-05-18T21:33:51.345Z,3.87
2019-05-18T21:36:24.524Z,4.75
2019-05-18T21:38:53.790Z,4.87
2019-05-18T21:41:20.984Z,5.70
2019-05-18T21:44:01.317Z,5.60
2019-05-18T21:49:20.309Z,4.97
2019-05-18T21:51:47.826Z,4.40
2019-05-18T21:54:29.340Z,4.45
2019-05-18T21:57:02.197Z,4.40
2019-05-18T21:59:29.368Z,4.60
2019-05-18T22:02:00.432Z,4.28
2019-05-18T22:04:28.586Z,4.30
2019-05-18T22:06:55.867Z,4.25
2019-05-18T22:09:25.095Z,4.45
2019-05-18T22:11:55.850Z,4.78
2019-05-18T22:14:28.547Z,5.05
2019-05-18T22:16:57.874Z,4.33
2019-05-18T22:19:26.027Z,4.55
2019-05-18T22:29:56.711Z,4.20
2019-05-18T22:32:24.913Z,3.80
2019-05-18T22:34:53.475Z,3.90
2019-05-18T22:39:54.719Z,3.90
2019-05-18T22:42:22.942Z,3.77
2019-05-18T22:44:53.237Z,3.65
2019-05-18T22:47:21.433Z,3.65
2019-05-18T22:49:52.042Z,3.25
2019-05-18T22:52:19.218Z,3.35
2019-05-18T22:54:46.448Z,3.42
2019-05-18T22:57:14.620Z,2.95
2019-05-18T22:59:41.800Z,3.10
2019-05-18T23:02:11.253Z,3.47
2019-05-18T23:04:38.705Z,3.22
2019-05-18T23:07:05.890Z,4.05
2019-05-18T23:09:38.746Z,4.05
2019-05-18T23:12:05.780Z,3.92
2019-05-18T23:14:33.167Z,3.45
2019-05-18T23:17:00.198Z,4.17
2019-05-18T23:19:27.556Z,3.58
2019-05-18T23:21:54.581Z,3.90
2019-05-18T23:24:21.953Z,3.70
2019-05-18T23:26:49.324Z,3.45
2019-05-18T23:29:16.373Z,3.90
2019-05-18T23:31:43.717Z,3.37
2019-05-18T23:34:11.080Z,3.55
2019-05-18T23:36:39.440Z,3.77
2019-05-18T23:39:06.711Z,4.03
2019-05-18T23:41:33.995Z,3.77
2019-05-18T23:44:01.040Z,3.90
2019-05-18T23:46:28.074Z,4.37
2019-05-18T23:48:55.120Z,4.37
2019-05-18T23:51:22.416Z,4.40
2019-05-18T23:53:49.729Z,4.67
2019-05-18T23:56:17.018Z,4.85
2019-05-18T23:58:44.119Z,5.25
